Time;durP1;ratioP1;P1;durP2;ratioP2;P2;SDS_P1;SDS_P2;PMS_P1;PMS_P2;Temp;Humidity;BMP_temperature;BMP_pressure;BME280_temperature;BME280_humidity;BME280_pressure;Samples;Min_cycle;Max_cycle;Signal;HPM_P1;HPM_P2
2022/10/05 00:01:00;;;;;;;0.00;0.00;;;;;;;7.27;100.00;100964.38;6315599;22;20494;-78
2022/10/05 00:03:32;;;;;;;0.20;0.20;;;;;;;7.29;100.00;100962.00;6341338;22;20014;-80
2022/10/05 00:05:59;;;;;;;0.47;0.47;;;;;;;7.23;100.00;100960.03;6315982;22;20037;-79
2022/10/05 00:08:29;;;;;;;0.73;0.73;;;;;;;7.32;100.00;100966.72;6314958;22;20427;-77
2022/10/05 00:10:55;;;;;;;0.93;0.85;;;;;;;7.24;100.00;100948.56;6314854;22;20010;-81
2022/10/05 00:13:23;;;;;;;0.00;0.00;;;;;;;7.28;100.00;100959.66;6340510;22;20021;-80
2022/10/05 00:15:50;;;;;;;0.30;0.30;;;;;;;7.19;100.00;100950.94;6315760;22;20036;-80
2022/10/05 00:18:19;;;;;;;0.10;0.10;;;;;;;7.20;100.00;100964.34;6340585;22;20002;-79
2022/10/05 00:20:46;;;;;;;0.05;0.05;;;;;;;7.12;100.00;100964.75;6341096;22;20406;-78
2022/10/05 00:23:22;;;;;;;0.40;0.40;;;;;;;7.04;100.00;100958.41;6341221;22;20014;-78
2022/10/05 00:25:47;;;;;;;1.55;0.70;;;;;;;7.02;100.00;100952.50;6368954;22;20089;-78
2022/10/05 00:28:22;;;;;;;0.20;0.20;;;;;;;6.94;100.00;100948.13;6367556;22;20045;-79
2022/10/05 00:30:47;;;;;;;0.10;0.10;;;;;;;6.93;100.00;100963.91;6315137;22;20048;-78
2022/10/05 00:33:13;;;;;;;0.28;0.28;;;;;;;6.93;100.00;100965.84;6368886;22;20010;-79
2022/10/05 00:35:39;;;;;;;0.38;0.38;;;;;;;6.95;100.00;100963.50;6369074;22;20321;-78
2022/10/05 00:38:04;;;;;;;0.40;0.40;;;;;;;6.93;100.00;100960.34;6368265;22;20071;-79
2022/10/05 00:41:10;;;;;;;0.47;0.47;;;;;;;6.93;100.00;100952.06;6340773;22;20018;-79
2022/10/05 00:43:58;;;;;;;0.47;0.47;;;;;;;6.84;100.00;100951.63;6340544;22;20124;-79
2022/10/05 00:46:48;;;;;;;2.97;0.90;;;;;;;6.78;100.00;100956.75;6340789;22;20018;-79
2022/10/05 00:49:51;;;;;;;0.05;0.05;;;;;;;6.69;100.00;100950.81;6340697;22;20018;-78
2022/10/05 00:52:38;;;;;;;0.20;0.20;;;;;;;6.72;100.00;100957.50;6369048;22;20014;-79
2022/10/05 00:55:26;;;;;;;0.35;0.35;;;;;;;6.77;100.00;100957.16;6368724;22;20015;-78
2022/10/05 00:58:23;;;;;;;0.25;0.25;;;;;;;6.77;100.00;100962.66;6313697;22;20029;-79
2022/10/05 01:01:19;;;;;;;0.38;0.38;;;;;;;6.74;100.00;100968.97;6368753;22;20407;-79
2022/10/05 01:04:03;;;;;;;0.35;0.35;;;;;;;6.78;100.00;100961.47;6340395;22;20048;-77
2022/10/05 01:06:28;;;;;;;0.05;0.05;;;;;;;6.75;100.00;100970.53;6340761;22;20020;-79
2022/10/05 01:09:21;;;;;;;1.13;1.02;;;;;;;6.69;100.00;100972.06;6368140;22;20077;-79
2022/10/05 01:12:21;;;;;;;1.95;1.00;;;;;;;6.57;100.00;100960.22;6340410;22;20063;-78
2022/10/05 01:15:01;;;;;;;0.20;0.20;;;;;;;6.55;100.00;100959.81;6339417;22;20041;-78
2022/10/05 01:17:36;;;;;;;1.65;0.55;;;;;;;6.50;100.00;100953.91;6314350;22;20010;-79
2022/10/05 01:20:26;;;;;;;0.70;0.65;;;;;;;6.50;100.00;100949.19;6366829;22;20073;-78
2022/10/05 01:22:59;;;;;;;0.15;0.15;;;;;;;6.49;100.00;100958.63;6368283;22;20324;-79
2022/10/05 01:25:50;;;;;;;1.98;1.20;;;;;;;6.49;100.00;100963.34;6341030;22;20010;-78
2022/10/05 01:28:29;;;;;;;0.90;0.43;;;;;;;6.43;100.00;100962.13;6313515;22;20042;-79
2022/10/05 01:31:00;;;;;;;1.60;0.47;;;;;;;6.47;100.00;100971.97;6368514;22;20007;-78
2022/10/05 01:33:40;;;;;;;0.00;0.00;;;;;;;6.34;100.00;100961.69;6367299;22;20094;-78
2022/10/05 01:36:17;;;;;;;0.10;0.10;;;;;;;6.33;100.00;100977.44;6368839;22;20014;-79
2022/10/05 01:39:09;;;;;;;1.20;1.10;;;;;;;6.29;100.00;100981.34;6368560;22;20046;-78
2022/10/05 01:42:03;;;;;;;0.10;0.10;;;;;;;6.24;100.00;100965.97;6315185;22;20011;-78
2022/10/05 01:44:57;;;;;;;0.28;0.28;;;;;;;6.20;100.00;100973.41;6368501;22;20037;-79
2022/10/05 01:47:39;;;;;;;1.00;0.68;;;;;;;6.19;100.00;100969.06;6368317;22;20014;-79
2022/10/05 01:50:32;;;;;;;0.00;0.00;;;;;;;6.20;100.00;100978.13;6339301;22;20030;-79
2022/10/05 01:53:06;;;;;;;1.40;0.30;;;;;;;6.21;100.00;100971.44;6351089;22;20018;-78
2022/10/05 01:55:48;;;;;;;0.82;0.80;;;;;;;6.25;100.00;100980.53;6314335;22;20021;-78
2022/10/05 01:58:49;;;;;;;0.20;0.20;;;;;;;6.28;100.00;100980.53;6313938;22;20024;-79
2022/10/05 02:01:18;;;;;;;0.13;0.13;;;;;;;6.31;100.00;100990.03;6234461;22;20014;-78
2022/10/05 02:03:48;;;;;;;0.55;0.55;;;;;;;6.29;100.00;100981.34;6340290;22;20403;-79
2022/10/05 02:06:22;;;;;;;0.00;0.00;;;;;;;6.29;100.00;100967.56;6340467;22;20397;-78
2022/10/05 02:08:57;;;;;;;0.00;0.00;;;;;;;6.26;100.00;100971.88;6313754;22;20352;-78
2022/10/05 02:11:23;;;;;;;0.63;0.63;;;;;;;6.22;100.00;100971.06;6314307;22;20428;-78
2022/10/05 02:13:55;;;;;;;0.13;0.13;;;;;;;6.21;100.00;100974.22;6367888;22;20015;-78
2022/10/05 02:16:43;;;;;;;1.05;0.77;;;;;;;6.16;100.00;100978.09;6314253;22;20352;-78
2022/10/05 02:19:22;;;;;;;0.22;0.13;;;;;;;6.16;100.00;100978.09;6313336;22;20018;-78
2022/10/05 02:21:52;;;;;;;0.40;0.40;;;;;;;6.13;100.00;100980.84;6340347;22;20059;-78
2022/10/05 02:24:26;;;;;;;0.30;0.30;;;;;;;6.08;100.00;100977.28;6339304;22;20440;-78
2022/10/05 02:26:52;;;;;;;0.55;0.55;;;;;;;6.01;100.00;100970.94;6318822;22;20014;-93
2022/10/05 02:29:21;;;;;;;0.00;0.00;;;;;;;6.05;100.00;100969.00;6316718;22;20016;-92
2022/10/05 02:31:52;;;;;;;0.00;0.00;;;;;;;5.98;100.00;100966.22;6369144;22;20002;-93
2022/10/05 02:34:25;;;;;;;1.15;0.45;;;;;;;5.99;100.00;100962.25;6315855;22;20014;-92
2022/10/05 02:37:21;;;;;;;0.10;0.10;;;;;;;6.01;100.00;100965.44;6340911;22;20010;-92
2022/10/05 02:40:03;;;;;;;1.35;1.25;;;;;;;6.00;100.00;100969.34;6297585;22;20128;-92
2022/10/05 02:42:52;;;;;;;0.32;0.32;;;;;;;6.00;100.00;100963.84;6340723;22;20444;-92
2022/10/05 02:45:22;;;;;;;0.00;0.00;;;;;;;6.01;100.00;100970.94;6343606;22;20018;-93
2022/10/05 02:48:13;;;;;;;0.28;0.28;;;;;;;5.94;100.00;100966.19;6348337;22;20456;-94
2022/10/05 02:50:54;;;;;;;0.00;0.00;;;;;;;6.00;100.00;100972.09;6323706;22;20452;-95
2022/10/05 02:53:26;;;;;;;0.17;0.17;;;;;;;5.97;100.00;100965.41;6351925;22;20087;-94
2022/10/05 02:56:01;;;;;;;0.00;0.00;;;;;;;5.93;100.00;100963.81;6350559;22;20039;-94
2022/10/05 02:58:27;;;;;;;1.70;0.55;;;;;;;5.93;100.00;100959.09;6382572;22;20037;-94
2022/10/05 03:00:59;;;;;;;0.00;0.00;;;;;;;5.90;100.00;100950.81;6334865;22;20023;-94
2022/10/05 03:03:35;;;;;;;0.32;0.32;;;;;;;5.89;100.00;100946.47;6377980;22;20064;-93
2022/10/05 03:06:06;;;;;;;0.30;0.30;;;;;;;5.98;100.00;100955.97;6346985;22;20024;-93
2022/10/05 03:08:39;;;;;;;0.35;0.35;;;;;;;5.99;100.00;100954.78;6346181;22;20089;-94
2022/10/05 03:11:21;;;;;;;0.47;0.47;;;;;;;5.98;100.00;100949.69;6320246;22;20010;-94
2022/10/05 03:13:57;;;;;;;0.45;0.45;;;;;;;5.93;100.00;100933.50;6319775;22;20042;-94
2022/10/05 03:16:33;;;;;;;0.00;0.00;;;;;;;5.95;100.00;100939.41;6346142;22;20019;-93
2022/10/05 03:19:24;;;;;;;0.45;0.45;;;;;;;5.98;100.00;100931.19;6343754;22;20019;-93
2022/10/05 03:22:16;;;;;;;0.00;0.00;;;;;;;6.03;100.00;100928.06;6370968;22;20010;-94
2022/10/05 03:24:57;;;;;;;0.10;0.10;;;;;;;6.07;100.00;100939.88;6324015;22;20029;-93
2022/10/05 03:27:32;;;;;;;0.00;0.00;;;;;;;6.08;100.00;100944.22;6384096;22;20022;-94
2022/10/05 03:30:15;;;;;;;0.13;0.13;;;;;;;6.09;100.00;100932.03;6348453;22;20015;-96
2022/10/05 03:32:53;;;;;;;0.50;0.20;;;;;;;6.13;100.00;100940.31;6318778;22;20097;-94
2022/10/05 03:35:28;;;;;;;0.20;0.20;;;;;;;6.07;100.00;100926.13;6374682;22;20040;-95
2022/10/05 03:38:09;;;;;;;0.80;0.73;;;;;;;6.14;100.00;100932.84;6347268;22;20081;-95
2022/10/05 03:40:48;;;;;;;0.55;0.52;;;;;;;6.16;100.00;100931.28;6374963;22;20011;-95
2022/10/05 03:43:33;;;;;;;5.25;2.45;;;;;;;6.07;100.00;100914.31;6319017;22;20015;-95
2022/10/05 03:46:07;;;;;;;1.95;1.08;;;;;;;6.17;100.00;100934.81;6291366;22;20085;-93
2022/10/05 03:48:46;;;;;;;0.00;0.00;;;;;;;6.17;100.00;100934.81;6341544;22;20566;-93
2022/10/05 03:51:20;;;;;;;1.20;0.35;;;;;;;6.19;100.00;100933.25;6340051;22;20557;-93
2022/10/05 03:53:59;;;;;;;0.15;0.15;;;;;;;6.23;100.00;100934.06;6340565;22;20010;-94
2022/10/05 03:56:36;;;;;;;0.10;0.10;;;;;;;6.23;100.00;100928.56;6341157;22;20436;-94
2022/10/05 03:59:24;;;;;;;0.32;0.32;;;;;;;6.27;100.00;100934.88;6341009;22;20014;-94
2022/10/05 04:01:54;;;;;;;0.75;0.75;;;;;;;6.25;100.00;100919.91;6315529;22;20089;-95
2022/10/05 04:04:32;;;;;;;0.25;0.25;;;;;;;6.22;100.00;100929.75;6342549;22;20011;-94
2022/10/05 04:06:59;;;;;;;0.10;0.10;;;;;;;6.25;100.00;100928.19;6316848;22;20014;-94
2022/10/05 04:09:42;;;;;;;3.00;1.65;;;;;;;6.31;100.00;100937.69;6317505;22;20342;-94
2022/10/05 04:12:15;;;;;;;0.00;0.00;;;;;;;6.27;100.00;100932.13;6317242;22;20010;-93
2022/10/05 04:14:46;;;;;;;0.25;0.25;;;;;;;6.31;100.00;100935.69;6343294;22;20014;-94
2022/10/05 04:17:17;;;;;;;0.35;0.32;;;;;;;6.28;100.00;100936.47;6317024;22;20010;-94
2022/10/05 04:20:03;;;;;;;0.75;0.75;;;;;;;6.26;100.00;100944.34;6317066;22;20018;-94
2022/10/05 04:22:47;;;;;;;0.13;0.13;;;;;;;6.19;100.00;100927.75;6317622;22;20045;-93
2022/10/05 04:25:16;;;;;;;0.00;0.00;;;;;;;6.26;100.00;100944.34;6343031;22;20006;-94
2022/10/05 04:28:10;;;;;;;0.52;0.52;;;;;;;6.23;100.00;100950.59;6343427;22;20050;-94
2022/10/05 04:30:43;;;;;;;0.13;0.13;;;;;;;6.22;100.00;100937.22;6286311;22;20018;-94
2022/10/05 04:33:11;;;;;;;0.20;0.20;;;;;;;6.23;100.00;100945.09;6370892;22;20440;-94
2022/10/05 04:36:06;;;;;;;0.03;0.03;;;;;;;6.21;100.00;100947.44;6342947;22;20044;-94
2022/10/05 04:39:02;;;;;;;1.58;0.82;;;;;;;6.17;100.00;100934.81;6343721;22;20022;-95
2022/10/05 04:41:58;;;;;;;0.13;0.13;;;;;;;6.22;100.00;100943.53;6342229;22;20017;-93
2022/10/05 04:44:47;;;;;;;2.00;1.80;;;;;;;6.19;100.00;100941.53;6316574;22;20470;-94
2022/10/05 04:47:43;;;;;;;0.52;0.47;;;;;;;6.18;100.00;100947.44;6316085;22;20029;-94
2022/10/05 04:50:45;;;;;;;0.45;0.30;;;;;;;6.15;100.00;100943.47;6342896;22;20018;-94
2022/10/05 04:53:48;;;;;;;0.17;0.17;;;;;;;6.15;100.00;100931.69;6291845;22;20010;-91
2022/10/05 04:56:34;;;;;;;0.32;0.32;;;;;;;6.24;100.00;100937.63;6335937;22;20018;-96
2022/10/05 04:59:25;;;;;;;0.15;0.15;;;;;;;6.30;100.00;100942.38;6313586;22;20414;-94
2022/10/05 05:02:16;;;;;;;0.65;0.65;;;;;;;6.29;100.00;100949.06;6354454;22;20049;-96
2022/10/05 05:04:48;;;;;;;1.33;1.23;;;;;;;6.29;100.00;100948.28;6340550;22;20052;-95
2022/10/05 05:07:26;;;;;;;0.30;0.30;;;;;;;6.30;100.00;100950.66;6392292;22;20016;-96
2022/10/05 05:09:56;;;;;;;0.20;0.20;;;;;;;6.32;100.00;100958.53;6363878;22;20022;-96
2022/10/05 05:13:03;;;;;;;0.10;0.10;;;;;;;6.33;100.00;100958.16;6344290;22;19990;-95
2022/10/05 05:15:51;;;;;;;0.50;0.50;;;;;;;6.37;100.00;100950.69;6308173;22;20029;-96
2022/10/05 05:18:53;;;;;;;0.17;0.17;;;;;;;6.36;100.00;100968.38;6323945;22;20026;-92
2022/10/05 05:21:38;;;;;;;1.20;0.70;;;;;;;6.37;100.00;100961.72;6343399;22;20015;-93
2022/10/05 05:24:32;;;;;;;0.90;0.90;;;;;;;6.44;100.00;100967.25;6342788;22;20395;-94
2022/10/05 05:27:25;;;;;;;0.60;0.60;;;;;;;6.50;100.00;100964.91;6370058;22;20018;-93
2022/10/05 05:30:01;;;;;;;0.75;0.70;;;;;;;6.57;100.00;100971.25;6342822;22;20015;-93
2022/10/05 05:32:34;;;;;;;0.52;0.52;;;;;;;6.62;100.00;100972.06;6342731;22;20115;-94
2022/10/05 05:35:07;;;;;;;2.05;1.65;;;;;;;6.65;100.00;100976.78;6371721;22;20006;-94
2022/10/05 05:37:48;;;;;;;0.20;0.20;;;;;;;6.75;100.00;100981.56;6343827;22;20351;-95
2022/10/05 05:40:22;;;;;;;0.77;0.77;;;;;;;6.88;100.00;100977.25;6371921;22;20014;-95
2022/10/05 05:43:12;;;;;;;0.88;0.85;;;;;;;6.95;100.00;100975.34;6321166;22;20097;-95
2022/10/05 05:45:52;;;;;;;0.08;0.08;;;;;;;7.07;100.00;100965.91;6358361;22;20026;-92
2022/10/05 05:48:39;;;;;;;1.73;1.13;;;;;;;7.17;100.00;100969.84;6353098;22;20044;-91
2022/10/05 05:51:09;;;;;;;4.90;1.67;;;;;;;7.30;100.00;100980.13;6320659;22;20045;-93
2022/10/05 05:53:40;;;;;;;1.10;1.00;;;;;;;7.40;100.00;100982.09;6330738;22;20018;-96
2022/10/05 05:56:15;;;;;;;0.40;0.30;;;;;;;7.47;100.00;100984.09;6320386;22;20041;-95
2022/10/05 05:58:58;;;;;;;0.63;0.38;;;;;;;7.55;100.00;100990.41;6343373;22;20021;-95
2022/10/05 06:01:38;;;;;;;;;;;;;;;7.60;100.00;100990.84;6315431;22;20164;-94
2022/10/05 06:04:14;;;;;;;1.27;1.02;;;;;;;7.60;100.00;100982.56;6314934;22;19910;-95
2022/10/05 06:06:43;;;;;;;0.97;0.80;;;;;;;7.82;100.00;100994.38;6342294;22;20037;-94
2022/10/05 06:09:41;;;;;;;0.32;0.32;;;;;;;7.97;100.00;101009.75;6317134;22;20010;-94
2022/10/05 06:12:21;;;;;;;0.65;0.57;;;;;;;8.09;100.00;101014.88;6319487;22;20085;-94
2022/10/05 06:14:59;;;;;;;1.02;0.93;;;;;;;8.22;100.00;101016.03;6318145;22;20386;-92
2022/10/05 06:18:02;;;;;;;0.98;0.90;;;;;;;8.33;100.00;101008.53;6346159;22;20006;-94
2022/10/05 06:20:34;;;;;;;1.25;1.15;;;;;;;8.47;100.00;101007.72;6172673;23;20046;-93
2022/10/05 06:23:05;;;;;;;0.43;0.25;;;;;;;8.53;100.00;101005.34;6302392;22;20026;-95
2022/10/05 06:25:48;;;;;;;0.70;0.70;;;;;;;8.66;100.00;101010.03;6347810;22;20077;-94
2022/10/05 06:28:17;;;;;;;0.40;0.40;;;;;;;8.78;100.00;101006.03;6293532;22;20042;-95
2022/10/05 06:30:58;;;;;;;0.47;0.47;;;;;;;8.96;100.00;101004.00;6296735;22;20040;-95
2022/10/05 06:33:45;;;;;;;0.32;0.32;;;;;;;9.17;100.00;101009.44;6346469;22;20021;-96
2022/10/05 06:36:16;;;;;;;1.77;0.70;;;;;;;9.40;100.00;101010.88;6345696;22;20079;-94
2022/10/05 06:38:51;;;;;;;0.20;0.20;;;;;;;9.50;100.00;100990.63;6346553;22;20037;-95
2022/10/05 06:41:43;;;;;;;0.20;0.20;;;;;;;9.58;100.00;101003.22;6346351;22;20018;-96
2022/10/05 06:44:22;;;;;;;0.47;0.47;;;;;;;9.71;100.00;100998.75;6370009;22;20017;-94
2022/10/05 06:47:22;;;;;;;0.13;0.13;;;;;;;9.66;100.00;100993.69;6324426;22;20017;-94
2022/10/05 06:50:39;;;;;;;0.20;0.20;;;;;;;9.67;100.00;100995.22;6345353;22;20448;-95
2022/10/05 06:53:39;;;;;;;0.10;0.10;;;;;;;9.59;100.00;100988.97;6343542;22;20377;-96
2022/10/05 06:56:17;;;;;;;0.63;0.63;;;;;;;9.41;100.00;101004.13;6318101;22;20093;-93
2022/10/05 06:59:05;;;;;;;0.45;0.45;;;;;;;9.57;100.00;101001.66;6318132;22;20007;-94
2022/10/05 07:01:52;;;;;;;0.28;0.28;;;;;;;9.91;100.00;101002.56;6344874;22;20001;-94
2022/10/05 07:04:34;;;;;;;0.57;0.57;;;;;;;10.21;100.00;101005.47;6316864;22;20415;-93
2022/10/05 07:07:02;;;;;;;1.88;0.77;;;;;;;10.45;100.00;101000.88;6341881;22;20010;-94
2022/10/05 07:09:47;;;;;;;0.22;0.22;;;;;;;10.80;100.00;101010.00;6315229;22;20021;-94
2022/10/05 07:12:35;;;;;;;0.57;0.57;;;;;;;11.11;100.00;101020.69;6315332;22;20006;-95
2022/10/05 07:15:06;;;;;;;0.15;0.15;;;;;;;11.30;100.00;101021.22;6342838;22;20378;-94
2022/10/05 07:17:50;;;;;;;0.25;0.25;;;;;;;11.46;100.00;101027.75;6371032;22;20006;-94
2022/10/05 07:20:29;;;;;;;0.75;0.60;;;;;;;11.51;100.00;101032.84;6370097;22;20018;-94
2022/10/05 07:23:10;;;;;;;0.25;0.25;;;;;;;11.74;100.00;101025.75;6287663;22;20017;-90
2022/10/05 07:26:06;;;;;;;0.20;0.20;;;;;;;11.96;100.00;101036.13;6312632;22;20018;-89
2022/10/05 07:29:05;;;;;;;0.63;0.63;;;;;;;12.21;100.00;101037.72;6340483;22;20021;-96
2022/10/05 07:31:35;;;;;;;0.00;0.00;;;;;;;12.38;100.00;101044.94;6286591;22;20108;-91
2022/10/05 07:34:08;;;;;;;0.43;0.43;;;;;;;12.50;100.00;101035.97;6311493;22;20025;-89
2022/10/05 07:39:30;;;;;;;0.30;0.20;;;;;;;12.82;100.00;101038.91;6371676;22;20010;-91
2022/10/05 07:42:09;;;;;;;0.30;0.30;;;;;;;12.95;100.00;101039.06;6316320;22;20022;-91
2022/10/05 07:44:42;;;;;;;0.10;0.10;;;;;;;13.12;100.00;101023.22;6316221;22;20109;-94
2022/10/05 07:47:22;;;;;;;0.80;0.70;;;;;;;13.45;100.00;101033.25;6319102;22;20359;-94
2022/10/05 07:49:57;;;;;;;0.50;0.50;;;;;;;13.52;100.00;101027.50;6317151;22;20018;-93
2022/10/05 07:52:24;;;;;;;0.08;0.03;;;;;;;13.71;100.00;101045.41;6343199;22;20006;-93
2022/10/05 07:55:03;;;;;;;0.57;0.57;;;;;;;13.93;100.00;101046.44;6341516;22;20440;-93
2022/10/05 07:57:45;;;;;;;0.38;0.32;;;;;;;13.86;100.00;101036.25;6317631;22;20091;-93
2022/10/05 08:00:14;;;;;;;0.10;0.10;;;;;;;14.16;100.00;101037.91;6370336;22;20007;-92
2022/10/05 08:02:51;;;;;;;0.63;0.45;;;;;;;14.25;100.00;101034.50;6342472;22;20029;-93
2022/10/05 08:05:28;;;;;;;0.77;0.50;;;;;;;14.31;100.00;101043.91;6342939;22;20049;-93
2022/10/05 08:08:22;;;;;;;0.45;0.45;;;;;;;14.64;100.00;101045.41;6317378;22;20036;-93
2022/10/05 08:10:51;;;;;;;;;;;;;;;14.66;100.00;101047.78;6342841;22;20037;-91
2022/10/05 08:13:38;;;;;;;0.20;0.20;;;;;;;14.75;100.00;101053.53;6342007;22;19948;-92
2022/10/05 08:16:13;;;;;;;0.63;0.63;;;;;;;15.01;100.00;101052.38;6370390;22;20014;-92
2022/10/05 08:18:47;;;;;;;0.98;0.63;;;;;;;15.21;100.00;101043.81;6342198;22;20010;-92
2022/10/05 08:21:15;;;;;;;0.30;0.17;;;;;;;15.25;100.00;101047.28;6316299;22;20019;-92
2022/10/05 08:23:50;;;;;;;0.20;0.20;;;;;;;15.28;100.00;101047.19;6342446;22;20017;-91
2022/10/05 08:26:43;;;;;;;0.43;0.43;;;;;;;15.53;98.99;101038.06;6350378;22;20332;-91
2022/10/05 08:29:21;;;;;;;0.25;0.25;;;;;;;15.66;97.91;101043.66;6372438;22;20015;-92
2022/10/05 08:31:49;;;;;;;1.23;1.13;;;;;;;15.51;99.67;101046.13;6342408;22;20488;-93
2022/10/05 08:34:22;;;;;;;0.20;0.20;;;;;;;15.67;95.26;101048.81;6342457;22;20354;-92
2022/10/05 08:36:59;;;;;;;0.20;0.20;;;;;;;15.89;97.36;101051.72;6342636;22;20011;-93
2022/10/05 08:39:28;;;;;;;0.95;0.32;;;;;;;16.26;97.27;101055.66;6342695;22;20347;-89
2022/10/05 08:42:04;;;;;;;0.40;0.40;;;;;;;16.27;94.36;101057.22;6368066;22;20014;-91
2022/10/05 08:44:48;;;;;;;2.47;1.10;;;;;;;16.29;96.83;101049.97;6369239;22;20447;-91
2022/10/05 08:47:19;;;;;;;0.40;0.40;;;;;;;16.51;94.91;101052.78;6368028;22;20494;-90
2022/10/05 08:50:09;;;;;;;0.70;0.70;;;;;;;16.37;92.73;101060.91;6369876;22;20014;-91
2022/10/05 08:53:23;;;;;;;0.25;0.25;;;;;;;16.27;95.26;101063.63;6342184;22;20444;-91
2022/10/05 08:55:48;;;;;;;1.38;1.05;;;;;;;16.45;95.86;101056.63;6274256;22;20474;-91
2022/10/05 08:58:32;;;;;;;0.00;0.00;;;;;;;16.65;91.33;101055.13;6369326;22;20006;-91
2022/10/05 09:01:11;;;;;;;0.60;0.60;;;;;;;16.74;88.37;101040.44;6369152;22;20405;-91
2022/10/05 09:03:57;;;;;;;0.47;0.47;;;;;;;16.72;91.63;101038.06;6341468;22;20448;-91
2022/10/05 09:06:44;;;;;;;0.55;0.43;;;;;;;16.87;91.07;101029.13;6369548;22;20014;-91
2022/10/05 09:09:18;;;;;;;0.38;0.38;;;;;;;16.86;92.08;101031.19;6341341;22;20010;-92
2022/10/05 09:12:00;;;;;;;0.63;0.55;;;;;;;16.93;93.87;101041.34;6369200;22;20030;-90
2022/10/05 09:14:25;;;;;;;0.38;0.38;;;;;;;17.27;91.49;101048.88;6341305;22;20010;-91
2022/10/05 09:17:17;;;;;;;0.93;0.80;;;;;;;17.60;86.93;101050.78;6341790;22;20078;-91
2022/10/05 09:19:52;;;;;;;1.38;0.50;;;;;;;17.75;87.35;101045.41;6304540;22;20087;-90
2022/10/05 09:22:34;;;;;;;0.70;0.45;;;;;;;18.00;87.22;101044.34;6341293;22;20087;-90
2022/10/05 09:25:16;;;;;;;0.40;0.40;;;;;;;17.96;85.38;101043.72;6369327;22;20468;-88
2022/10/05 09:28:20;;;;;;;0.57;0.57;;;;;;;17.93;83.85;101039.03;6369514;22;20019;-91
2022/10/05 09:31:18;;;;;;;0.10;0.10;;;;;;;17.89;85.88;101044.03;6322207;22;20022;-90
2022/10/05 09:34:05;;;;;;;0.75;0.60;;;;;;;17.86;84.24;101044.94;6341216;22;20452;-90
2022/10/05 09:37:02;;;;;;;0.80;0.80;;;;;;;17.98;84.39;101041.25;6369273;22;20025;-90
2022/10/05 09:39:54;;;;;;;0.15;0.15;;;;;;;18.00;81.02;101047.16;6273752;22;20041;-90
2022/10/05 09:42:31;;;;;;;0.75;0.75;;;;;;;18.04;79.37;101028.16;6341395;22;20460;-89
2022/10/05 09:45:00;;;;;;;0.75;0.75;;;;;;;18.12;78.86;101021.00;6341370;22;20014;-91
2022/10/05 09:47:44;;;;;;;0.60;0.28;;;;;;;18.37;78.34;101006.66;6369943;22;20010;-91
2022/10/05 09:50:44;;;;;;;0.13;0.13;;;;;;;18.64;75.62;101003.88;6341103;22;20013;-90
2022/10/05 09:53:23;;;;;;;1.05;0.57;;;;;;;18.79;74.91;100994.81;6341196;22;20010;-91
2022/10/05 09:56:13;;;;;;;0.05;0.05;;;;;;;18.93;74.22;100996.97;6315764;22;20099;-89
2022/10/05 09:58:58;;;;;;;0.43;0.35;;;;;;;19.00;74.14;101002.28;6369111;22;20456;-90
2022/10/05 10:01:50;;;;;;;0.35;0.35;;;;;;;19.06;72.34;100998.34;6341098;22;20018;-89
2022/10/05 10:04:18;;;;;;;0.88;0.30;;;;;;;19.15;73.11;100997.56;6368421;22;20064;-90
2022/10/05 10:07:12;;;;;;;0.20;0.10;;;;;;;19.16;70.57;101003.97;6369408;22;20091;-90
2022/10/05 10:10:11;;;;;;;0.47;0.47;;;;;;;19.28;71.43;101006.59;6369507;22;20014;-91
2022/10/05 10:13:04;;;;;;;0.13;0.13;;;;;;;19.61;71.39;101005.88;6368407;22;20147;-89
2022/10/05 10:15:48;;;;;;;2.30;1.25;;;;;;;19.76;68.36;101013.13;6368585;22;20089;-90
2022/10/05 10:18:19;;;;;;;;;;;;;;;19.79;68.23;101008.56;6369541;22;20010;-90
2022/10/05 10:21:07;;;;;;;0.15;0.15;;;;;;;19.96;65.43;101004.09;6368662;22;19910;-91
2022/10/05 10:23:44;;;;;;;0.55;0.50;;;;;;;19.94;63.68;100998.16;6314340;22;20041;-89
2022/10/05 10:26:41;;;;;;;0.17;0.17;;;;;;;19.95;63.41;100985.66;6340821;22;20014;-90
2022/10/05 10:29:09;;;;;;;0.30;0.30;;;;;;;20.20;64.70;100987.97;6341497;22;20085;-90
2022/10/05 10:31:40;;;;;;;0.00;0.00;;;;;;;20.54;61.99;100994.31;6368826;22;20013;-92
2022/10/05 10:34:19;;;;;;;0.60;0.47;;;;;;;20.59;60.38;100993.63;6368912;22;20432;-90
2022/10/05 10:36:50;;;;;;;0.17;0.17;;;;;;;20.65;58.75;100992.50;6368410;22;20462;-91
2022/10/05 10:39:20;;;;;;;0.43;0.35;;;;;;;20.66;59.32;100988.41;6368576;22;20344;-92
2022/10/05 10:42:07;;;;;;;0.35;0.30;;;;;;;20.61;58.17;100991.91;6340502;22;20008;-91
2022/10/05 10:44:51;;;;;;;0.35;0.25;;;;;;;20.36;58.87;100983.97;6368374;22;20108;-92
2022/10/05 10:47:42;;;;;;;0.25;0.25;;;;;;;20.41;60.74;100986.91;6368459;22;20010;-88
2022/10/05 10:50:40;;;;;;;0.03;0.03;;;;;;;20.61;59.35;100991.13;6340452;22;20381;-91
2022/10/05 10:53:31;;;;;;;0.17;0.17;;;;;;;20.47;60.22;100982.16;6341245;22;20014;-90
2022/10/05 10:55:56;;;;;;;0.47;0.45;;;;;;;20.44;60.31;100983.13;6369021;22;20014;-89
2022/10/05 10:58:43;;;;;;;0.20;0.20;;;;;;;20.33;60.43;100982.91;6368284;22;20421;-89
2022/10/05 11:01:47;;;;;;;1.52;0.50;;;;;;;20.19;60.58;100972.34;6368376;22;20448;-91
2022/10/05 11:04:46;;;;;;;0.93;0.50;;;;;;;20.06;60.12;100968.97;6368183;22;20018;-91
2022/10/05 11:07:49;;;;;;;0.10;0.10;;;;;;;19.98;61.59;100977.00;6344973;22;20018;-89
2022/10/05 11:10:29;;;;;;;0.17;0.17;;;;;;;19.96;59.89;100975.94;6373609;22;20015;-90
2022/10/05 11:13:30;;;;;;;0.15;0.15;;;;;;;19.66;61.97;100968.59;6367548;22;20085;-91
2022/10/05 11:16:30;;;;;;;0.50;0.50;;;;;;;19.74;62.98;100969.81;6266473;22;20079;-91
2022/10/05 11:19:20;;;;;;;0.32;0.32;;;;;;;19.92;61.68;100964.09;6339880;22;20025;-89
2022/10/05 11:22:09;;;;;;;0.77;0.50;;;;;;;19.73;63.01;100959.84;6368589;22;20018;-90
2022/10/05 11:25:02;;;;;;;0.63;0.40;;;;;;;19.53;63.46;100966.78;6341031;22;20029;-89
2022/10/05 11:27:52;;;;;;;1.55;0.93;;;;;;;19.51;64.56;100958.06;6368389;22;20467;-90
2022/10/05 11:30:36;;;;;;;0.40;0.22;;;;;;;19.58;65.36;100956.13;6367390;22;20024;-91
2022/10/05 11:33:13;;;;;;;1.85;1.70;;;;;;;19.64;65.42;100948.63;6369744;22;20022;-90
2022/10/05 11:36:24;;;;;;;0.85;0.73;;;;;;;19.82;64.73;100943.66;6371245;22;20038;-89
2022/10/05 11:38:56;;;;;;;0.75;0.70;;;;;;;19.80;63.93;100953.84;6373184;22;20063;-89
2022/10/05 11:41:51;;;;;;;0.28;0.28;;;;;;;19.93;63.71;100955.16;6373151;22;20022;-91
2022/10/05 11:44:41;;;;;;;1.55;0.63;;;;;;;20.19;62.82;100949.78;6374587;22;20432;-91
2022/10/05 11:47:24;;;;;;;0.43;0.38;;;;;;;19.90;62.80;100938.44;6370628;22;20014;-91
2022/10/05 11:50:04;;;;;;;2.22;0.40;;;;;;;19.99;63.35;100946.81;6344831;22;20006;-90
2022/10/05 11:52:35;;;;;;;0.30;0.30;;;;;;;19.99;62.04;100946.81;6373512;22;20055;-91
2022/10/05 11:55:38;;;;;;;0.43;0.30;;;;;;;20.04;63.30;100926.44;6371123;22;20052;-90
2022/10/05 11:58:16;;;;;;;0.40;0.28;;;;;;;20.34;62.67;100944.25;6298583;22;20022;-92
2022/10/05 12:00:45;;;;;;;15.07;0.95;;;;;;;20.35;61.67;100929.66;6366808;22;20390;-92
2022/10/05 12:03:29;;;;;;;0.20;0.20;;;;;;;20.57;62.75;100942.63;6338543;22;20057;-92
2022/10/05 12:06:15;;;;;;;0.20;0.10;;;;;;;20.46;61.03;100958.03;6367798;22;20015;-91
2022/10/05 12:09:03;;;;;;;0.73;0.73;;;;;;;20.44;61.01;100937.25;6340315;22;20010;-90
2022/10/05 12:11:44;;;;;;;0.20;0.15;;;;;;;20.38;60.71;100934.31;6367310;22;20010;-92
2022/10/05 12:14:27;;;;;;;0.20;0.20;;;;;;;20.32;59.29;100941.91;6368604;22;20048;-92
2022/10/05 12:16:59;;;;;;;0.17;0.15;;;;;;;20.12;59.82;100933.28;6340891;22;20099;-91
2022/10/05 12:19:40;;;;;;;0.20;0.20;;;;;;;20.26;59.57;100932.50;6340095;22;20052;-91
2022/10/05 12:22:14;;;;;;;0.35;0.35;;;;;;;20.32;59.38;100936.25;6340458;22;20010;-91
2022/10/05 12:25:07;;;;;;;0.20;0.20;;;;;;;20.45;57.95;100922.69;6367430;22;20106;-91
2022/10/05 12:27:36;;;;;;;0.00;0.00;;;;;;;20.53;58.43;100927.94;6370471;22;20010;-91
2022/10/05 12:30:28;;;;;;;0.30;0.30;;;;;;;20.50;58.17;100909.97;6342586;22;20467;-92
2022/10/05 12:33:11;;;;;;;0.93;0.60;;;;;;;20.64;61.50;100922.50;6335056;22;20455;-91